MOL Dominance — V7OX3 — position and weather

sailwx.info

Track history (hours):
 
Tides and Currents Weather Stations Pressure Air Temp Water Temp Dewpoint Dewpoint Depression Visibility Wind Speed Wind Dir Waves Ship Positions

MOL Dominance

Last reported at 2017-Nov-04 13:59 UTC. Time now 2017-Nov-19 01:08 UTC.
Position N 01°13' E 103°34'.
Warning: this ship's position is 14 days out of date.

Length 260 m; draft 12.4 m.

Type: Ship (hazmat cat A). MMSI: 538003180.

Date/timePositionNaut miles runAvg speedWind from/ knotsBaromVisibWave heightAir tempDewpointWater temp
2017-Nov-04 13:59N 01°13' E 103°34'612.0
2017-Nov-04 13:30N 01°11' E 103°39'611.4
2017-Nov-04 12:58N 01°09' E 103°45'613.3
2017-Nov-04 12:30N 01°11' E 103°50'3 6.7
2017-Nov-04 11:59N 01°15' E 103°52'2 3.7
2017-Nov-04 11:31N 01°16' E 103°50'0 0.5
2017-Nov-04 11:00N 01°16' E 103°50'0 0.0
2017-Nov-04 10:31N 01°16' E 103°50'0 0.0
2017-Nov-04 10:00N 01°16' E 103°50'0 0.0
2017-Nov-04 09:30N 01°16' E 103°50'0 0.0
2017-Nov-04 09:00N 01°16' E 103°50'0 0.0
2017-Nov-04 08:30N 01°16' E 103°50'0 0.0
2017-Nov-04 08:00N 01°16' E 103°50'0 0.0
2017-Nov-04 07:30N 01°16' E 103°50'0 0.0
2017-Nov-04 07:00N 01°16' E 103°50'0 0.0
2017-Nov-04 06:30N 01°16' E 103°50'0 0.0
2017-Nov-04 06:00N 01°16' E 103°50'0 0.0
2017-Nov-04 05:30N 01°16' E 103°50'0 0.0
2017-Nov-04 05:00N 01°16' E 103°50'0 0.0
2017-Nov-04 04:30N 01°16' E 103°50'0 0.0
2017-Nov-04 04:00N 01°16' E 103°50'0 0.0
2017-Nov-04 03:30N 01°16' E 103°50'0 0.0
2017-Nov-04 03:01N 01°16' E 103°50'0 0.5
2017-Nov-04 02:30N 01°16' E 103°50'2 3.0
2017-Nov-04 02:00N 01°15' E 103°52'0 0.3
2017-Nov-04 01:31N 01°15' E 103°52'3 5.4
2017-Nov-04 01:01N 01°13' E 103°54'4 7.2
2017-Nov-04 00:30N 01°15' E 103°57'  
2017-Oct-31 01:51N 21°57' E 113°53'616.8
2017-Oct-31 01:30N 22°02' E 113°51'510.6
2017-Oct-31 00:59N 22°08' E 113°51'816.4
2017-Oct-31 00:31N 22°15' E 113°49'815.6
2017-Oct-31 00:01N 22°23' E 113°46'815.0
2017-Oct-30 23:31N 22°30' E 113°45'611.7
2017-Oct-30 23:00N 22°36' E 113°43'3 6.7
2017-Oct-30 22:30N 22°39' E 113°41'0 0.2
2017-Oct-30 22:00N 22°39' E 113°41'0 0.0
2017-Oct-30 21:31N 22°39' E 113°41'0 0.0
2017-Oct-30 21:00N 22°39' E 113°41'0 0.0
2017-Oct-30 20:31N 22°39' E 113°41'0 0.0
2017-Oct-30 20:00N 22°39' E 113°41'0 0.0
2017-Oct-30 19:30N 22°39' E 113°41'0 0.0
2017-Oct-30 18:54N 22°39' E 113°41'0 0.0
2017-Oct-30 18:27N 22°39' E 113°41'0 0.0
2017-Oct-30 17:51N 22°39' E 113°41'0 0.0
2017-Oct-30 17:30N 22°39' E 113°41'0 0.0
2017-Oct-30 17:00N 22°39' E 113°41'0 0.0
2017-Oct-30 16:24N 22°39' E 113°41'0 0.0
2017-Oct-30 15:54N 22°39' E 113°41'0 0.0
2017-Oct-30 15:27N 22°39' E 113°41'0 0.0
2017-Oct-30 14:57N 22°39' E 113°41'0 0.0
2017-Oct-30 14:30N 22°39' E 113°41'0 0.0
2017-Oct-30 13:30N 22°39' E 113°41'0 0.0
2017-Oct-30 13:00N 22°39' E 113°41'0 0.1
2017-Oct-30 12:30N 22°39' E 113°41'3 6.3
2017-Oct-30 12:00N 22°36' E 113°43'714.9
2017-Oct-30 11:30N 22°29' E 113°45'714.0
2017-Oct-30 11:00N 22°22' E 113°47'714.4
2017-Oct-30 10:31N 22°15' E 113°49'1015.2
2017-Oct-30 09:49N 22°05' E 113°51'311.2
2017-Oct-30 09:30N 22°02' E 113°52'4 8.6
2017-Oct-30 09:00N 21°58' E 113°55'611.1
2017-Oct-30 08:29N 22°01' E 114°01'19 2.0
2017-Oct-29 23:13N 22°19' E 114°06'411.4
2017-Oct-29 22:52N 22°15' E 114°07'5 8.6
2017-Oct-29 22:19N 22°12' E 114°11'10 7.3
2017-Oct-29 20:57N 22°08' E 114°21'3 5.4
2017-Oct-29 20:29N 22°08' E 114°24'815.4
2017-Oct-29 19:58N 22°07' E 114°32'816.4
2017-Oct-29 19:30N 22°08' E 114°41'816.5
2017-Oct-29 19:00N 22°10' E 114°50'816.6
2017-Oct-29 18:29N 22°12' E 114°58'816.6
2017-Oct-29 18:00N 22°14' E 115°07'917.0
2017-Oct-29 17:29N 22°16' E 115°16'  
2017-Oct-26 00:12N 31°14' E 122°06'314.6
2017-Oct-26 00:00N 31°14' E 122°03'815.8
2017-Oct-25 23:31N 31°16' E 121°54'815.2
2017-Oct-25 23:01N 31°18' E 121°45'713.3
2017-Oct-25 22:30N 31°22' E 121°38'4 7.0
2017-Oct-25 22:00N 31°23' E 121°35'0 0.0
2017-Oct-25 21:30N 31°23' E 121°35'0 0.0
2017-Oct-25 21:00N 31°23' E 121°35'0 0.0
2017-Oct-25 20:30N 31°23' E 121°35'0 0.0
2017-Oct-25 19:57N 31°23' E 121°35'0 0.0
2017-Oct-25 19:30N 31°23' E 121°35'0 0.0
2017-Oct-25 19:00N 31°23' E 121°35'0 0.0
2017-Oct-25 18:30N 31°23' E 121°35'0 0.0
2017-Oct-25 18:00N 31°23' E 121°35'0 0.0
2017-Oct-25 17:30N 31°23' E 121°35'0 0.0
2017-Oct-25 17:00N 31°23' E 121°35'0 0.0
2017-Oct-25 16:30N 31°23' E 121°35'0 0.0
2017-Oct-25 16:00N 31°23' E 121°35'0 0.0
2017-Oct-25 15:30N 31°23' E 121°35'0 0.0
2017-Oct-25 15:00N 31°23' E 121°35'0 0.0
2017-Oct-25 14:30N 31°23' E 121°35'0 0.0
2017-Oct-25 14:00N 31°23' E 121°35'  
Track history (hours):
 
Tides and Currents Weather Stations Pressure Air Temp Water Temp Dewpoint Dewpoint Depression Visibility Wind Speed Wind Dir Waves Ship Positions

MOL Dominance

Last reported at 2017-Nov-04 13:59 UTC. Time now 2017-Nov-19 01:08 UTC.
Position N 01°13' E 103°34'.
Warning: this ship's position is 14 days out of date.

Length 260 m; draft 12.4 m.

Type: Ship (hazmat cat A). MMSI: 538003180.

Date/timePositionNaut miles runAvg speedWind from/ knotsBaromVisibWave heightAir tempDewpointWater temp
2017-Nov-04 13:59N 01°13' E 103°34'612.0
2017-Nov-04 13:30N 01°11' E 103°39'611.4
2017-Nov-04 12:58N 01°09' E 103°45'613.3
2017-Nov-04 12:30N 01°11' E 103°50'3 6.7
2017-Nov-04 11:59N 01°15' E 103°52'2 3.7
2017-Nov-04 11:31N 01°16' E 103°50'0 0.5
2017-Nov-04 11:00N 01°16' E 103°50'0 0.0
2017-Nov-04 10:31N 01°16' E 103°50'0 0.0
2017-Nov-04 10:00N 01°16' E 103°50'0 0.0
2017-Nov-04 09:30N 01°16' E 103°50'0 0.0
2017-Nov-04 09:00N 01°16' E 103°50'0 0.0
2017-Nov-04 08:30N 01°16' E 103°50'0 0.0
2017-Nov-04 08:00N 01°16' E 103°50'0 0.0
2017-Nov-04 07:30N 01°16' E 103°50'0 0.0
2017-Nov-04 07:00N 01°16' E 103°50'0 0.0
2017-Nov-04 06:30N 01°16' E 103°50'0 0.0
2017-Nov-04 06:00N 01°16' E 103°50'0 0.0
2017-Nov-04 05:30N 01°16' E 103°50'0 0.0
2017-Nov-04 05:00N 01°16' E 103°50'0 0.0
2017-Nov-04 04:30N 01°16' E 103°50'0 0.0
2017-Nov-04 04:00N 01°16' E 103°50'0 0.0
2017-Nov-04 03:30N 01°16' E 103°50'0 0.0
2017-Nov-04 03:01N 01°16' E 103°50'0 0.5
2017-Nov-04 02:30N 01°16' E 103°50'2 3.0
2017-Nov-04 02:00N 01°15' E 103°52'0 0.3
2017-Nov-04 01:31N 01°15' E 103°52'3 5.4
2017-Nov-04 01:01N 01°13' E 103°54'4 7.2
2017-Nov-04 00:30N 01°15' E 103°57'  
2017-Oct-31 01:51N 21°57' E 113°53'616.8
2017-Oct-31 01:30N 22°02' E 113°51'510.6
2017-Oct-31 00:59N 22°08' E 113°51'816.4
2017-Oct-31 00:31N 22°15' E 113°49'815.6
2017-Oct-31 00:01N 22°23' E 113°46'815.0
2017-Oct-30 23:31N 22°30' E 113°45'611.7
2017-Oct-30 23:00N 22°36' E 113°43'3 6.7
2017-Oct-30 22:30N 22°39' E 113°41'0 0.2
2017-Oct-30 22:00N 22°39' E 113°41'0 0.0
2017-Oct-30 21:31N 22°39' E 113°41'0 0.0
2017-Oct-30 21:00N 22°39' E 113°41'0 0.0
2017-Oct-30 20:31N 22°39' E 113°41'0 0.0
2017-Oct-30 20:00N 22°39' E 113°41'0 0.0
2017-Oct-30 19:30N 22°39' E 113°41'0 0.0
2017-Oct-30 18:54N 22°39' E 113°41'0 0.0
2017-Oct-30 18:27N 22°39' E 113°41'0 0.0
2017-Oct-30 17:51N 22°39' E 113°41'0 0.0
2017-Oct-30 17:30N 22°39' E 113°41'0 0.0
2017-Oct-30 17:00N 22°39' E 113°41'0 0.0
2017-Oct-30 16:24N 22°39' E 113°41'0 0.0
2017-Oct-30 15:54N 22°39' E 113°41'0 0.0
2017-Oct-30 15:27N 22°39' E 113°41'0 0.0
2017-Oct-30 14:57N 22°39' E 113°41'0 0.0
2017-Oct-30 14:30N 22°39' E 113°41'0 0.0
2017-Oct-30 13:30N 22°39' E 113°41'0 0.0
2017-Oct-30 13:00N 22°39' E 113°41'0 0.1
2017-Oct-30 12:30N 22°39' E 113°41'3 6.3
2017-Oct-30 12:00N 22°36' E 113°43'714.9
2017-Oct-30 11:30N 22°29' E 113°45'714.0
2017-Oct-30 11:00N 22°22' E 113°47'714.4
2017-Oct-30 10:31N 22°15' E 113°49'1015.2
2017-Oct-30 09:49N 22°05' E 113°51'311.2
2017-Oct-30 09:30N 22°02' E 113°52'4 8.6
2017-Oct-30 09:00N 21°58' E 113°55'611.1
2017-Oct-30 08:29N 22°01' E 114°01'19 2.0
2017-Oct-29 23:13N 22°19' E 114°06'411.4
2017-Oct-29 22:52N 22°15' E 114°07'5 8.6
2017-Oct-29 22:19N 22°12' E 114°11'10 7.3
2017-Oct-29 20:57N 22°08' E 114°21'3 5.4
2017-Oct-29 20:29N 22°08' E 114°24'815.4
2017-Oct-29 19:58N 22°07' E 114°32'816.4
2017-Oct-29 19:30N 22°08' E 114°41'816.5
2017-Oct-29 19:00N 22°10' E 114°50'816.6
2017-Oct-29 18:29N 22°12' E 114°58'816.6
2017-Oct-29 18:00N 22°14' E 115°07'917.0
2017-Oct-29 17:29N 22°16' E 115°16'  
2017-Oct-26 00:12N 31°14' E 122°06'314.6
2017-Oct-26 00:00N 31°14' E 122°03'815.8
2017-Oct-25 23:31N 31°16' E 121°54'815.2
2017-Oct-25 23:01N 31°18' E 121°45'713.3
2017-Oct-25 22:30N 31°22' E 121°38'4 7.0
2017-Oct-25 22:00N 31°23' E 121°35'0 0.0
2017-Oct-25 21:30N 31°23' E 121°35'0 0.0
2017-Oct-25 21:00N 31°23' E 121°35'0 0.0
2017-Oct-25 20:30N 31°23' E 121°35'0 0.0
2017-Oct-25 19:57N 31°23' E 121°35'0 0.0
2017-Oct-25 19:30N 31°23' E 121°35'0 0.0
2017-Oct-25 19:00N 31°23' E 121°35'0 0.0
2017-Oct-25 18:30N 31°23' E 121°35'0 0.0
2017-Oct-25 18:00N 31°23' E 121°35'0 0.0
2017-Oct-25 17:30N 31°23' E 121°35'0 0.0
2017-Oct-25 17:00N 31°23' E 121°35'0 0.0
2017-Oct-25 16:30N 31°23' E 121°35'0 0.0
2017-Oct-25 16:00N 31°23' E 121°35'0 0.0
2017-Oct-25 15:30N 31°23' E 121°35'0 0.0
2017-Oct-25 15:00N 31°23' E 121°35'0 0.0
2017-Oct-25 14:30N 31°23' E 121°35'0 0.0
2017-Oct-25 14:00N 31°23' E 121°35'  

Dump ship's entire track history